sensor_id;sensor_type;location;lat;lon;timestamp;temperature;humidity
10231;DHT22;62604;49.432;8.680;2022-08-26T00:00:33;24.30;48.00
10231;DHT22;62604;49.432;8.680;2022-08-26T00:03:00;24.20;48.60
10231;DHT22;62604;49.432;8.680;2022-08-26T00:05:27;24.10;49.10
10231;DHT22;62604;49.432;8.680;2022-08-26T00:07:54;24.00;49.50
10231;DHT22;62604;49.432;8.680;2022-08-26T00:10:22;23.90;50.80
10231;DHT22;62604;49.432;8.680;2022-08-26T00:12:49;23.70;50.50
10231;DHT22;62604;49.432;8.680;2022-08-26T00:15:19;23.60;51.40
10231;DHT22;62604;49.432;8.680;2022-08-26T00:17:48;23.50;52.90
10231;DHT22;62604;49.432;8.680;2022-08-26T00:20:19;23.40;53.60
10231;DHT22;62604;49.432;8.680;2022-08-26T00:22:46;23.40;53.90
10231;DHT22;62604;49.432;8.680;2022-08-26T00:25:14;23.30;54.40
10231;DHT22;62604;49.432;8.680;2022-08-26T00:27:41;23.40;54.60
10231;DHT22;62604;49.432;8.680;2022-08-26T00:33:50;23.30;55.20
10231;DHT22;62604;49.432;8.680;2022-08-26T00:36:20;23.30;55.90
10231;DHT22;62604;49.432;8.680;2022-08-26T00:38:47;23.30;56.60
10231;DHT22;62604;49.432;8.680;2022-08-26T00:41:14;23.30;56.30
10231;DHT22;62604;49.432;8.680;2022-08-26T00:43:41;23.40;57.10
10231;DHT22;62604;49.432;8.680;2022-08-26T00:46:11;23.40;57.80
10231;DHT22;62604;49.432;8.680;2022-08-26T00:48:40;23.40;57.20
10231;DHT22;62604;49.432;8.680;2022-08-26T00:51:13;23.40;57.60
10231;DHT22;62604;49.432;8.680;2022-08-26T00:53:45;23.40;57.40
10231;DHT22;62604;49.432;8.680;2022-08-26T00:56:15;23.30;57.40
10231;DHT22;62604;49.432;8.680;2022-08-26T00:58:43;23.30;58.60
10231;DHT22;62604;49.432;8.680;2022-08-26T01:01:13;23.30;58.20
10231;DHT22;62604;49.432;8.680;2022-08-26T01:03:41;23.20;59.00
10231;DHT22;62604;49.432;8.680;2022-08-26T01:06:11;23.20;60.40
10231;DHT22;62604;49.432;8.680;2022-08-26T01:08:39;23.10;60.10
10231;DHT22;62604;49.432;8.680;2022-08-26T01:11:07;23.00;61.10
10231;DHT22;62604;49.432;8.680;2022-08-26T01:13:35;23.00;62.60
10231;DHT22;62604;49.432;8.680;2022-08-26T01:16:05;23.00;63.60
10231;DHT22;62604;49.432;8.680;2022-08-26T01:18:33;22.90;63.60
10231;DHT22;62604;49.432;8.680;2022-08-26T01:21:08;22.90;63.90
10231;DHT22;62604;49.432;8.680;2022-08-26T01:23:41;22.90;65.20
10231;DHT22;62604;49.432;8.680;2022-08-26T01:26:12;22.90;65.10
10231;DHT22;62604;49.432;8.680;2022-08-26T01:28:40;22.80;65.30
10231;DHT22;62604;49.432;8.680;2022-08-26T01:31:12;22.80;66.60
10231;DHT22;62604;49.432;8.680;2022-08-26T01:33:45;22.80;67.50
10231;DHT22;62604;49.432;8.680;2022-08-26T01:36:13;22.80;68.30
10231;DHT22;62604;49.432;8.680;2022-08-26T01:38:43;22.70;68.30
10231;DHT22;62604;49.432;8.680;2022-08-26T01:41:11;22.60;68.60
10231;DHT22;62604;49.432;8.680;2022-08-26T01:43:41;22.60;69.30
10231;DHT22;62604;49.432;8.680;2022-08-26T01:46:09;22.60;70.00
10231;DHT22;62604;49.432;8.680;2022-08-26T01:48:38;22.60;70.90
10231;DHT22;62604;49.432;8.680;2022-08-26T01:51:07;22.60;71.90
10231;DHT22;62604;49.432;8.680;2022-08-26T01:53:37;22.50;73.10
10231;DHT22;62604;49.432;8.680;2022-08-26T01:56:07;22.50;73.40
10231;DHT22;62604;49.432;8.680;2022-08-26T01:58:39;22.40;74.00
10231;DHT22;62604;49.432;8.680;2022-08-26T02:01:07;22.30;74.70
10231;DHT22;62604;49.432;8.680;2022-08-26T02:03:37;22.30;75.40
10231;DHT22;62604;49.432;8.680;2022-08-26T02:06:07;22.30;75.80
10231;DHT22;62604;49.432;8.680;2022-08-26T02:08:38;22.20;76.40
10231;DHT22;62604;49.432;8.680;2022-08-26T02:11:08;22.20;76.90
10231;DHT22;62604;49.432;8.680;2022-08-26T02:13:39;22.10;78.50
10231;DHT22;62604;49.432;8.680;2022-08-26T02:16:07;22.10;79.30
10231;DHT22;62604;49.432;8.680;2022-08-26T02:18:38;22.00;80.50
10231;DHT22;62604;49.432;8.680;2022-08-26T02:21:06;22.00;80.30
10231;DHT22;62604;49.432;8.680;2022-08-26T02:23:34;22.00;80.70
10231;DHT22;62604;49.432;8.680;2022-08-26T02:26:06;21.90;80.30
10231;DHT22;62604;49.432;8.680;2022-08-26T02:28:39;21.90;81.30
10231;DHT22;62604;49.432;8.680;2022-08-26T02:31:06;21.90;80.70
10231;DHT22;62604;49.432;8.680;2022-08-26T02:33:34;21.90;81.20
10231;DHT22;62604;49.432;8.680;2022-08-26T02:36:01;21.90;80.90
10231;DHT22;62604;49.432;8.680;2022-08-26T02:38:28;21.90;81.80
10231;DHT22;62604;49.432;8.680;2022-08-26T02:40:55;21.90;82.10
10231;DHT22;62604;49.432;8.680;2022-08-26T02:43:22;21.90;82.00
10231;DHT22;62604;49.432;8.680;2022-08-26T02:45:50;21.90;83.20
10231;DHT22;62604;49.432;8.680;2022-08-26T02:48:19;21.90;82.20
10231;DHT22;62604;49.432;8.680;2022-08-26T02:50:47;21.90;82.40
10231;DHT22;62604;49.432;8.680;2022-08-26T02:53:14;21.90;82.50
10231;DHT22;62604;49.432;8.680;2022-08-26T02:55:42;21.90;82.90
10231;DHT22;62604;49.432;8.680;2022-08-26T02:58:09;21.90;83.40
10231;DHT22;62604;49.432;8.680;2022-08-26T03:00:37;21.80;83.60
10231;DHT22;62604;49.432;8.680;2022-08-26T03:03:06;21.80;84.20
10231;DHT22;62604;49.432;8.680;2022-08-26T03:05:34;21.90;84.00
10231;DHT22;62604;49.432;8.680;2022-08-26T03:08:01;21.90;84.30
10231;DHT22;62604;49.432;8.680;2022-08-26T03:10:29;21.90;84.00
10231;DHT22;62604;49.432;8.680;2022-08-26T03:12:57;21.90;84.20
10231;DHT22;62604;49.432;8.680;2022-08-26T03:15:24;21.90;84.50
10231;DHT22;62604;49.432;8.680;2022-08-26T03:17:51;21.90;84.40
10231;DHT22;62604;49.432;8.680;2022-08-26T03:20:20;22.00;84.20
10231;DHT22;62604;49.432;8.680;2022-08-26T03:22:47;22.00;84.70
10231;DHT22;62604;49.432;8.680;2022-08-26T03:25:16;22.00;84.60
10231;DHT22;62604;49.432;8.680;2022-08-26T03:27:43;22.00;85.70
10231;DHT22;62604;49.432;8.680;2022-08-26T03:30:11;21.90;85.70
10231;DHT22;62604;49.432;8.680;2022-08-26T03:32:57;21.90;86.40
10231;DHT22;62604;49.432;8.680;2022-08-26T03:35:25;21.80;86.90
10231;DHT22;62604;49.432;8.680;2022-08-26T03:37:53;21.70;87.50
10231;DHT22;62604;49.432;8.680;2022-08-26T03:40:20;21.70;88.10
10231;DHT22;62604;49.432;8.680;2022-08-26T03:42:48;21.60;88.50
10231;DHT22;62604;49.432;8.680;2022-08-26T03:45:15;21.50;88.90
10231;DHT22;62604;49.432;8.680;2022-08-26T03:47:43;21.40;89.70
10231;DHT22;62604;49.432;8.680;2022-08-26T03:50:12;21.20;90.40
10231;DHT22;62604;49.432;8.680;2022-08-26T03:52:41;21.10;91.00
10231;DHT22;62604;49.432;8.680;2022-08-26T03:55:09;20.90;91.40
10231;DHT22;62604;49.432;8.680;2022-08-26T03:57:35;20.90;91.70
10231;DHT22;62604;49.432;8.680;2022-08-26T04:00:04;21.00;92.00
10231;DHT22;62604;49.432;8.680;2022-08-26T04:02:31;21.00;91.70
10231;DHT22;62604;49.432;8.680;2022-08-26T04:04:58;21.00;91.60
10231;DHT22;62604;49.432;8.680;2022-08-26T04:07:25;21.00;92.00
10231;DHT22;62604;49.432;8.680;2022-08-26T04:09:55;21.00;92.30
10231;DHT22;62604;49.432;8.680;2022-08-26T04:12:22;20.90;92.30
10231;DHT22;62604;49.432;8.680;2022-08-26T04:14:50;20.90;92.20
10231;DHT22;62604;49.432;8.680;2022-08-26T04:17:17;20.90;92.20
10231;DHT22;62604;49.432;8.680;2022-08-26T04:19:44;20.90;92.40
10231;DHT22;62604;49.432;8.680;2022-08-26T04:22:11;20.90;92.30
10231;DHT22;62604;49.432;8.680;2022-08-26T04:24:38;21.00;92.70
10231;DHT22;62604;49.432;8.680;2022-08-26T04:27:07;21.00;92.90
10231;DHT22;62604;49.432;8.680;2022-08-26T04:29:34;21.00;93.10
10231;DHT22;62604;49.432;8.680;2022-08-26T04:32:04;21.00;92.80
10231;DHT22;62604;49.432;8.680;2022-08-26T04:34:31;21.00;93.10
10231;DHT22;62604;49.432;8.680;2022-08-26T04:36:58;21.00;93.20
10231;DHT22;62604;49.432;8.680;2022-08-26T04:39:26;21.00;93.20
10231;DHT22;62604;49.432;8.680;2022-08-26T04:41:53;21.00;93.40
10231;DHT22;62604;49.432;8.680;2022-08-26T04:44:23;21.00;93.10
10231;DHT22;62604;49.432;8.680;2022-08-26T04:46:51;21.00;93.30
10231;DHT22;62604;49.432;8.680;2022-08-26T04:49:19;21.00;93.60
10231;DHT22;62604;49.432;8.680;2022-08-26T04:51:46;20.90;93.60
10231;DHT22;62604;49.432;8.680;2022-08-26T04:54:13;20.90;93.80
10231;DHT22;62604;49.432;8.680;2022-08-26T04:56:43;20.90;94.10
10231;DHT22;62604;49.432;8.680;2022-08-26T04:59:13;20.90;93.80
10231;DHT22;62604;49.432;8.680;2022-08-26T05:01:43;20.90;94.00
10231;DHT22;62604;49.432;8.680;2022-08-26T05:04:10;20.90;94.30
10231;DHT22;62604;49.432;8.680;2022-08-26T05:06:37;20.90;94.40
10231;DHT22;62604;49.432;8.680;2022-08-26T05:09:04;20.90;94.50
10231;DHT22;62604;49.432;8.680;2022-08-26T05:11:31;20.90;94.50
10231;DHT22;62604;49.432;8.680;2022-08-26T05:13:58;20.90;93.80
10231;DHT22;62604;49.432;8.680;2022-08-26T05:16:26;21.00;93.70
10231;DHT22;62604;49.432;8.680;2022-08-26T05:18:54;21.00;93.50
10231;DHT22;62604;49.432;8.680;2022-08-26T05:21:24;21.00;93.90
10231;DHT22;62604;49.432;8.680;2022-08-26T05:23:54;21.10;93.60
10231;DHT22;62604;49.432;8.680;2022-08-26T05:26:23;21.20;93.70
10231;DHT22;62604;49.432;8.680;2022-08-26T05:28:51;21.30;93.70
10231;DHT22;62604;49.432;8.680;2022-08-26T05:31:20;21.30;93.50
10231;DHT22;62604;49.432;8.680;2022-08-26T05:33:48;21.40;93.10
10231;DHT22;62604;49.432;8.680;2022-08-26T05:36:21;21.40;93.10
10231;DHT22;62604;49.432;8.680;2022-08-26T05:38:48;21.40;92.90
10231;DHT22;62604;49.432;8.680;2022-08-26T05:41:17;21.40;93.00
10231;DHT22;62604;49.432;8.680;2022-08-26T05:43:44;21.40;93.00
10231;DHT22;62604;49.432;8.680;2022-08-26T05:46:11;21.40;92.70
10231;DHT22;62604;49.432;8.680;2022-08-26T05:48:39;21.40;92.30
10231;DHT22;62604;49.432;8.680;2022-08-26T05:51:07;21.40;92.60
10231;DHT22;62604;49.432;8.680;2022-08-26T05:53:37;21.40;92.50
10231;DHT22;62604;49.432;8.680;2022-08-26T05:56:06;21.50;92.40
10231;DHT22;62604;49.432;8.680;2022-08-26T05:58:34;21.50;92.20
10231;DHT22;62604;49.432;8.680;2022-08-26T06:01:04;21.60;92.70
10231;DHT22;62604;49.432;8.680;2022-08-26T06:03:32;21.50;92.40
10231;DHT22;62604;49.432;8.680;2022-08-26T06:06:03;21.50;92.40
10231;DHT22;62604;49.432;8.680;2022-08-26T06:08:32;21.50;92.20
10231;DHT22;62604;49.432;8.680;2022-08-26T06:11:02;21.60;92.80
10231;DHT22;62604;49.432;8.680;2022-08-26T06:13:30;21.80;93.10
10231;DHT22;62604;49.432;8.680;2022-08-26T06:16:01;21.90;93.10
10231;DHT22;62604;49.432;8.680;2022-08-26T06:18:30;22.00;92.20
10231;DHT22;62604;49.432;8.680;2022-08-26T06:21:00;22.20;91.10
10231;DHT22;62604;49.432;8.680;2022-08-26T06:23:28;22.40;90.40
10231;DHT22;62604;49.432;8.680;2022-08-26T06:26:15;22.50;90.30
10231;DHT22;62604;49.432;8.680;2022-08-26T06:28:43;22.60;90.30
10231;DHT22;62604;49.432;8.680;2022-08-26T06:31:10;22.70;89.70
10231;DHT22;62604;49.432;8.680;2022-08-26T06:33:37;22.80;87.70
10231;DHT22;62604;49.432;8.680;2022-08-26T06:36:04;23.00;88.00
10231;DHT22;62604;49.432;8.680;2022-08-26T06:38:31;23.40;84.60
10231;DHT22;62604;49.432;8.680;2022-08-26T06:40:58;24.10;80.60
10231;DHT22;62604;49.432;8.680;2022-08-26T06:43:27;24.90;76.10
10231;DHT22;62604;49.432;8.680;2022-08-26T06:46:02;25.70;70.80
10231;DHT22;62604;49.432;8.680;2022-08-26T06:48:29;25.90;68.60
10231;DHT22;62604;49.432;8.680;2022-08-26T06:51:05;26.20;67.00
10231;DHT22;62604;49.432;8.680;2022-08-26T06:53:33;26.90;64.30
10231;DHT22;62604;49.432;8.680;2022-08-26T06:56:02;27.20;60.60
10231;DHT22;62604;49.432;8.680;2022-08-26T06:58:32;27.50;62.20
10231;DHT22;62604;49.432;8.680;2022-08-26T07:00:59;28.20;57.60
10231;DHT22;62604;49.432;8.680;2022-08-26T07:03:26;29.10;53.80
10231;DHT22;62604;49.432;8.680;2022-08-26T07:05:55;29.70;50.50
10231;DHT22;62604;49.432;8.680;2022-08-26T07:08:26;30.20;48.10
10231;DHT22;62604;49.432;8.680;2022-08-26T07:10:53;30.60;45.70
10231;DHT22;62604;49.432;8.680;2022-08-26T07:13:20;31.10;43.40
10231;DHT22;62604;49.432;8.680;2022-08-26T07:15:49;31.50;41.30
10231;DHT22;62604;49.432;8.680;2022-08-26T07:18:16;31.90;39.70
10231;DHT22;62604;49.432;8.680;2022-08-26T07:20:43;32.10;37.40
10231;DHT22;62604;49.432;8.680;2022-08-26T07:23:10;32.00;37.20
10231;DHT22;62604;49.432;8.680;2022-08-26T07:25:37;32.00;37.20
10231;DHT22;62604;49.432;8.680;2022-08-26T07:28:05;31.90;37.20
10231;DHT22;62604;49.432;8.680;2022-08-26T07:30:32;31.70;36.60
10231;DHT22;62604;49.432;8.680;2022-08-26T07:33:00;32.00;36.60
10231;DHT22;62604;49.432;8.680;2022-08-26T07:35:27;31.40;36.60
10231;DHT22;62604;49.432;8.680;2022-08-26T07:37:55;30.60;38.10
10231;DHT22;62604;49.432;8.680;2022-08-26T07:40:22;30.20;41.00
10231;DHT22;62604;49.432;8.680;2022-08-26T07:42:50;29.80;41.40
10231;DHT22;62604;49.432;8.680;2022-08-26T07:45:17;29.40;42.70
10231;DHT22;62604;49.432;8.680;2022-08-26T07:47:44;29.10;44.10
10231;DHT22;62604;49.432;8.680;2022-08-26T07:50:13;28.90;45.20
10231;DHT22;62604;49.432;8.680;2022-08-26T07:52:40;28.80;45.50
10231;DHT22;62604;49.432;8.680;2022-08-26T07:55:08;28.60;45.50
10231;DHT22;62604;49.432;8.680;2022-08-26T07:57:36;28.70;44.80
10231;DHT22;62604;49.432;8.680;2022-08-26T08:00:05;29.10;44.40
10231;DHT22;62604;49.432;8.680;2022-08-26T08:02:37;29.40;43.30
10231;DHT22;62604;49.432;8.680;2022-08-26T08:05:26;29.20;43.50
10231;DHT22;62604;49.432;8.680;2022-08-26T08:08:13;28.70;44.50
10231;DHT22;62604;49.432;8.680;2022-08-26T08:10:40;28.30;45.80
10231;DHT22;62604;49.432;8.680;2022-08-26T08:13:10;28.00;46.60
10231;DHT22;62604;49.432;8.680;2022-08-26T08:15:38;27.60;47.90
10231;DHT22;62604;49.432;8.680;2022-08-26T08:18:06;27.40;48.80
10231;DHT22;62604;49.432;8.680;2022-08-26T08:20:34;27.40;49.10
10231;DHT22;62604;49.432;8.680;2022-08-26T08:23:02;27.60;50.00
10231;DHT22;62604;49.432;8.680;2022-08-26T08:25:30;27.60;49.60
10231;DHT22;62604;49.432;8.680;2022-08-26T08:27:58;27.60;49.00
10231;DHT22;62604;49.432;8.680;2022-08-26T08:30:25;28.10;47.40
10231;DHT22;62604;49.432;8.680;2022-08-26T08:32:54;29.00;45.50
10231;DHT22;62604;49.432;8.680;2022-08-26T08:35:22;29.60;43.90
10231;DHT22;62604;49.432;8.680;2022-08-26T08:37:52;29.70;43.20
10231;DHT22;62604;49.432;8.680;2022-08-26T08:40:22;29.80;42.00
10231;DHT22;62604;49.432;8.680;2022-08-26T08:42:56;29.80;42.20
10231;DHT22;62604;49.432;8.680;2022-08-26T08:45:30;30.20;40.60
10231;DHT22;62604;49.432;8.680;2022-08-26T08:48:00;30.70;39.90
10231;DHT22;62604;49.432;8.680;2022-08-26T08:50:30;31.20;38.50
10231;DHT22;62604;49.432;8.680;2022-08-26T08:53:07;31.30;37.30
10231;DHT22;62604;49.432;8.680;2022-08-26T08:55:43;31.40;36.20
10231;DHT22;62604;49.432;8.680;2022-08-26T08:58:17;31.30;36.60
10231;DHT22;62604;49.432;8.680;2022-08-26T09:00:48;30.90;36.60
10231;DHT22;62604;49.432;8.680;2022-08-26T09:03:26;31.10;37.70
10231;DHT22;62604;49.432;8.680;2022-08-26T09:05:58;31.70;36.10
10231;DHT22;62604;49.432;8.680;2022-08-26T09:08:31;32.40;34.00
10231;DHT22;62604;49.432;8.680;2022-08-26T09:11:02;32.90;32.10
10231;DHT22;62604;49.432;8.680;2022-08-26T09:13:30;32.60;31.40
10231;DHT22;62604;49.432;8.680;2022-08-26T09:16:03;32.10;33.10
10231;DHT22;62604;49.432;8.680;2022-08-26T09:18:55;32.40;32.80
10231;DHT22;62604;49.432;8.680;2022-08-26T09:21:25;32.60;30.70
10231;DHT22;62604;49.432;8.680;2022-08-26T09:24:03;32.70;30.20
10231;DHT22;62604;49.432;8.680;2022-08-26T09:26:43;32.80;30.50
10231;DHT22;62604;49.432;8.680;2022-08-26T09:29:19;33.40;29.50
10231;DHT22;62604;49.432;8.680;2022-08-26T09:31:47;33.90;28.10
10231;DHT22;62604;49.432;8.680;2022-08-26T09:34:17;33.40;27.80
10231;DHT22;62604;49.432;8.680;2022-08-26T09:36:46;33.10;28.40
10231;DHT22;62604;49.432;8.680;2022-08-26T09:39:31;33.20;28.30
10231;DHT22;62604;49.432;8.680;2022-08-26T09:42:04;33.30;28.40
10231;DHT22;62604;49.432;8.680;2022-08-26T09:44:51;33.20;28.50
10231;DHT22;62604;49.432;8.680;2022-08-26T09:47:21;33.00;28.80
10231;DHT22;62604;49.432;8.680;2022-08-26T09:49:57;32.70;28.80
10231;DHT22;62604;49.432;8.680;2022-08-26T09:52:24;32.70;28.40
10231;DHT22;62604;49.432;8.680;2022-08-26T09:55:06;32.70;28.40
10231;DHT22;62604;49.432;8.680;2022-08-26T09:57:45;32.60;28.50
10231;DHT22;62604;49.432;8.680;2022-08-26T10:00:25;32.60;28.60
10231;DHT22;62604;49.432;8.680;2022-08-26T10:02:52;32.60;28.60
10231;DHT22;62604;49.432;8.680;2022-08-26T10:05:29;32.50;28.70
10231;DHT22;62604;49.432;8.680;2022-08-26T10:07:57;32.60;29.10
10231;DHT22;62604;49.432;8.680;2022-08-26T10:10:30;32.80;28.50
10231;DHT22;62604;49.432;8.680;2022-08-26T10:13:03;33.00;28.20
10231;DHT22;62604;49.432;8.680;2022-08-26T10:15:40;32.30;28.70
10231;DHT22;62604;49.432;8.680;2022-08-26T10:18:12;32.50;28.50
10231;DHT22;62604;49.432;8.680;2022-08-26T10:20:48;32.30;28.20
10231;DHT22;62604;49.432;8.680;2022-08-26T10:23:18;32.50;28.20
10231;DHT22;62604;49.432;8.680;2022-08-26T10:25:52;32.90;27.80
10231;DHT22;62604;49.432;8.680;2022-08-26T10:28:28;32.60;27.80
10231;DHT22;62604;49.432;8.680;2022-08-26T10:31:00;32.70;28.20
10231;DHT22;62604;49.432;8.680;2022-08-26T10:33:30;32.90;27.90
10231;DHT22;62604;49.432;8.680;2022-08-26T10:36:00;33.10;27.20
10231;DHT22;62604;49.432;8.680;2022-08-26T10:38:32;33.40;26.70
10231;DHT22;62604;49.432;8.680;2022-08-26T10:41:07;33.90;26.10
10231;DHT22;62604;49.432;8.680;2022-08-26T10:43:40;33.90;25.60
10231;DHT22;62604;49.432;8.680;2022-08-26T10:46:11;32.20;27.20
10231;DHT22;62604;49.432;8.680;2022-08-26T10:48:46;32.40;27.50
10231;DHT22;62604;49.432;8.680;2022-08-26T10:51:21;33.60;26.50
10231;DHT22;62604;49.432;8.680;2022-08-26T10:53:56;34.30;25.10
10231;DHT22;62604;49.432;8.680;2022-08-26T10:56:36;35.30;23.80
10231;DHT22;62604;49.432;8.680;2022-08-26T10:59:09;34.50;23.70
10231;DHT22;62604;49.432;8.680;2022-08-26T11:01:43;34.80;23.50
10231;DHT22;62604;49.432;8.680;2022-08-26T11:04:22;35.30;23.60
10231;DHT22;62604;49.432;8.680;2022-08-26T11:10:02;36.80;21.10
10231;DHT22;62604;49.432;8.680;2022-08-26T11:12:50;37.00;20.50
10231;DHT22;62604;49.432;8.680;2022-08-26T11:18:44;36.80;20.10
10231;DHT22;62604;49.432;8.680;2022-08-26T11:24:43;37.70;19.80
10231;DHT22;62604;49.432;8.680;2022-08-26T11:27:52;37.50;19.30
10231;DHT22;62604;49.432;8.680;2022-08-26T11:30:43;37.90;18.50
10231;DHT22;62604;49.432;8.680;2022-08-26T11:36:38;37.80;18.60
10231;DHT22;62604;49.432;8.680;2022-08-26T11:39:15;37.30;18.80
10231;DHT22;62604;49.432;8.680;2022-08-26T11:41:44;37.40;19.00
10231;DHT22;62604;49.432;8.680;2022-08-26T11:44:18;37.10;18.90
10231;DHT22;62604;49.432;8.680;2022-08-26T11:46:52;36.90;18.80
10231;DHT22;62604;49.432;8.680;2022-08-26T11:49:19;37.20;19.40
10231;DHT22;62604;49.432;8.680;2022-08-26T11:51:47;36.00;19.10
10231;DHT22;62604;49.432;8.680;2022-08-26T11:54:16;35.30;21.20
10231;DHT22;62604;49.432;8.680;2022-08-26T11:56:44;35.30;21.70
10231;DHT22;62604;49.432;8.680;2022-08-26T11:59:19;34.90;22.00
10231;DHT22;62604;49.432;8.680;2022-08-26T12:01:50;34.40;22.20
10231;DHT22;62604;49.432;8.680;2022-08-26T12:04:26;33.00;24.10
10231;DHT22;62604;49.432;8.680;2022-08-26T12:06:54;32.80;24.80
10231;DHT22;62604;49.432;8.680;2022-08-26T12:09:24;32.80;25.20
10231;DHT22;62604;49.432;8.680;2022-08-26T12:11:52;32.90;25.70
10231;DHT22;62604;49.432;8.680;2022-08-26T12:14:35;33.00;25.50
10231;DHT22;62604;49.432;8.680;2022-08-26T12:17:08;32.60;25.90
10231;DHT22;62604;49.432;8.680;2022-08-26T12:19:36;32.40;26.40
10231;DHT22;62604;49.432;8.680;2022-08-26T12:22:07;32.40;26.60
10231;DHT22;62604;49.432;8.680;2022-08-26T12:24:42;32.30;26.60
10231;DHT22;62604;49.432;8.680;2022-08-26T12:27:15;32.10;26.70
10231;DHT22;62604;49.432;8.680;2022-08-26T12:29:44;32.10;26.60
10231;DHT22;62604;49.432;8.680;2022-08-26T12:32:28;32.00;26.80
10231;DHT22;62604;49.432;8.680;2022-08-26T12:34:56;31.90;26.90
10231;DHT22;62604;49.432;8.680;2022-08-26T12:37:24;32.40;26.00
10231;DHT22;62604;49.432;8.680;2022-08-26T12:39:52;33.00;25.20
10231;DHT22;62604;49.432;8.680;2022-08-26T12:42:38;33.30;25.00
10231;DHT22;62604;49.432;8.680;2022-08-26T12:45:08;33.50;24.60
10231;DHT22;62604;49.432;8.680;2022-08-26T12:47:37;33.90;24.00
10231;DHT22;62604;49.432;8.680;2022-08-26T12:50:08;34.10;23.20
10231;DHT22;62604;49.432;8.680;2022-08-26T12:52:42;34.40;22.50
10231;DHT22;62604;49.432;8.680;2022-08-26T12:55:19;34.10;22.60
10231;DHT22;62604;49.432;8.680;2022-08-26T12:57:46;33.90;23.10
10231;DHT22;62604;49.432;8.680;2022-08-26T13:00:39;34.20;23.00
10231;DHT22;62604;49.432;8.680;2022-08-26T13:06:14;34.50;22.70
10231;DHT22;62604;49.432;8.680;2022-08-26T13:08:42;34.70;22.80
10231;DHT22;62604;49.432;8.680;2022-08-26T13:11:12;35.00;21.40
10231;DHT22;62604;49.432;8.680;2022-08-26T13:13:40;34.70;22.00
10231;DHT22;62604;49.432;8.680;2022-08-26T13:16:08;34.70;22.20
10231;DHT22;62604;49.432;8.680;2022-08-26T13:18:36;34.70;21.90
10231;DHT22;62604;49.432;8.680;2022-08-26T13:21:10;33.80;22.80
10231;DHT22;62604;49.432;8.680;2022-08-26T13:23:38;33.60;23.10
10231;DHT22;62604;49.432;8.680;2022-08-26T13:26:07;33.50;22.70
10231;DHT22;62604;49.432;8.680;2022-08-26T13:28:35;33.00;22.40
10231;DHT22;62604;49.432;8.680;2022-08-26T13:31:02;33.20;22.70
10231;DHT22;62604;49.432;8.680;2022-08-26T13:33:31;33.40;22.90
10231;DHT22;62604;49.432;8.680;2022-08-26T13:35:59;33.40;22.50
10231;DHT22;62604;49.432;8.680;2022-08-26T13:38:26;33.40;23.10
10231;DHT22;62604;49.432;8.680;2022-08-26T13:40:53;33.40;23.90
10231;DHT22;62604;49.432;8.680;2022-08-26T13:43:20;32.90;25.90
10231;DHT22;62604;49.432;8.680;2022-08-26T13:45:47;32.70;26.30
10231;DHT22;62604;49.432;8.680;2022-08-26T13:48:14;32.70;25.90
10231;DHT22;62604;49.432;8.680;2022-08-26T13:50:45;32.60;26.40
10231;DHT22;62604;49.432;8.680;2022-08-26T13:53:13;32.60;27.50
10231;DHT22;62604;49.432;8.680;2022-08-26T13:55:40;32.50;27.10
10231;DHT22;62604;49.432;8.680;2022-08-26T13:58:08;32.50;27.30
10231;DHT22;62604;49.432;8.680;2022-08-26T14:00:36;32.40;27.50
10231;DHT22;62604;49.432;8.680;2022-08-26T14:03:04;32.40;26.90
10231;DHT22;62604;49.432;8.680;2022-08-26T14:05:31;32.20;26.90
10231;DHT22;62604;49.432;8.680;2022-08-26T14:08:00;32.30;26.80
10231;DHT22;62604;49.432;8.680;2022-08-26T14:10:27;32.40;26.80
10231;DHT22;62604;49.432;8.680;2022-08-26T14:12:54;32.30;25.50
10231;DHT22;62604;49.432;8.680;2022-08-26T14:15:21;32.00;27.00
10231;DHT22;62604;49.432;8.680;2022-08-26T14:17:49;32.10;27.80
10231;DHT22;62604;49.432;8.680;2022-08-26T14:20:21;32.10;29.20
10231;DHT22;62604;49.432;8.680;2022-08-26T14:22:49;32.10;28.50
10231;DHT22;62604;49.432;8.680;2022-08-26T14:25:18;32.00;28.10
10231;DHT22;62604;49.432;8.680;2022-08-26T14:27:47;31.90;27.90
10231;DHT22;62604;49.432;8.680;2022-08-26T14:30:16;31.80;28.00
10231;DHT22;62604;49.432;8.680;2022-08-26T14:32:45;31.50;27.70
10231;DHT22;62604;49.432;8.680;2022-08-26T14:35:17;31.30;28.40
10231;DHT22;62604;49.432;8.680;2022-08-26T14:37:44;31.20;28.70
10231;DHT22;62604;49.432;8.680;2022-08-26T14:40:12;30.90;29.00
10231;DHT22;62604;49.432;8.680;2022-08-26T14:42:48;30.70;29.80
10231;DHT22;62604;49.432;8.680;2022-08-26T14:45:19;30.40;30.00
10231;DHT22;62604;49.432;8.680;2022-08-26T14:47:48;30.30;30.40
10231;DHT22;62604;49.432;8.680;2022-08-26T14:50:18;30.30;30.80
10231;DHT22;62604;49.432;8.680;2022-08-26T14:52:48;30.30;31.00
10231;DHT22;62604;49.432;8.680;2022-08-26T14:55:19;30.20;31.10
10231;DHT22;62604;49.432;8.680;2022-08-26T14:57:47;30.10;31.60
10231;DHT22;62604;49.432;8.680;2022-08-26T15:00:15;30.00;31.40
10231;DHT22;62604;49.432;8.680;2022-08-26T15:02:43;29.90;31.90
10231;DHT22;62604;49.432;8.680;2022-08-26T15:05:12;29.70;32.20
10231;DHT22;62604;49.432;8.680;2022-08-26T15:07:41;29.50;31.70
10231;DHT22;62604;49.432;8.680;2022-08-26T15:10:10;29.40;33.20
10231;DHT22;62604;49.432;8.680;2022-08-26T15:12:39;29.30;32.70
10231;DHT22;62604;49.432;8.680;2022-08-26T15:15:11;29.20;32.40
10231;DHT22;62604;49.432;8.680;2022-08-26T15:17:39;29.20;32.80
10231;DHT22;62604;49.432;8.680;2022-08-26T15:20:09;29.20;33.00
10231;DHT22;62604;49.432;8.680;2022-08-26T15:22:37;29.10;32.50
10231;DHT22;62604;49.432;8.680;2022-08-26T15:25:06;29.10;32.70
10231;DHT22;62604;49.432;8.680;2022-08-26T15:27:33;29.10;32.40
10231;DHT22;62604;49.432;8.680;2022-08-26T15:30:00;29.00;32.40
10231;DHT22;62604;49.432;8.680;2022-08-26T15:32:29;29.00;32.30
10231;DHT22;62604;49.432;8.680;2022-08-26T15:34:56;28.90;32.50
10231;DHT22;62604;49.432;8.680;2022-08-26T15:37:23;28.90;33.20
10231;DHT22;62604;49.432;8.680;2022-08-26T15:39:50;28.90;33.40
10231;DHT22;62604;49.432;8.680;2022-08-26T15:42:18;28.90;33.30
10231;DHT22;62604;49.432;8.680;2022-08-26T15:44:46;28.80;32.70
10231;DHT22;62604;49.432;8.680;2022-08-26T15:47:13;28.80;33.20
10231;DHT22;62604;49.432;8.680;2022-08-26T15:49:41;28.70;33.50
10231;DHT22;62604;49.432;8.680;2022-08-26T15:52:08;28.60;34.10
10231;DHT22;62604;49.432;8.680;2022-08-26T15:54:35;28.50;34.80
10231;DHT22;62604;49.432;8.680;2022-08-26T15:57:02;28.50;35.30
10231;DHT22;62604;49.432;8.680;2022-08-26T15:59:29;28.40;35.70
10231;DHT22;62604;49.432;8.680;2022-08-26T16:01:56;28.40;36.10
10231;DHT22;62604;49.432;8.680;2022-08-26T16:04:24;28.40;36.40
10231;DHT22;62604;49.432;8.680;2022-08-26T16:06:53;28.40;38.70